Flight Track Log - Related Links

Times and Time Zones

All times are in EDT time to prevent confusion due to time zone crossing. See the AVN31 flight status page for this flight to view local times or setup timezone preferences in your user account.

Time Position Orientation Groundspeed Altitude Reporting Facility
EDT Latitude Longitude Course Direction KTS km/h meters Rate Location/Type
Thu 07:19:21 -37.7000 144.8460 177° South 792  Level Aus ATC (Calculated)
Thu 07:19:58 -37.7203 144.8475 171° South 167 309 610 -229 Descending FlightAware ADS-B
Thu 07:20:01 -37.7230 144.8480 170° South 172 319 640 488 Climbing FlightAware ADS-B
Thu 07:20:13 -37.7326 144.8490 182° South 184 341 732 406 Climbing FlightAware ADS-B
Thu 07:20:19 -37.7369 144.8484 190° South 191 354 762 366 Climbing FlightAware ADS-B
Thu 07:20:23 -37.7410 144.8472 198° South 198 367 792 610 Climbing FlightAware ADS-B
Thu 07:20:25 -37.7430 144.8460 202° Southwest 201 372 823 610 Climbing FlightAware ADS-B
Thu 07:20:29 -37.7460 144.8446 206° Southwest 204 378 853 762 Climbing FlightAware ADS-B
Thu 07:20:37 -37.7530 144.8380 222° Southwest 211 391 975 831 Climbing FlightAware ADS-B
Thu 07:20:40 -37.7548 144.8354 228° Southwest 212 393 1,006 610 Climbing FlightAware ADS-B
Thu 07:20:43 -37.7570 144.8330 235° Southwest 217 402 1,036 549 Climbing FlightAware ADS-B
Thu 07:20:50 -37.7599 144.8247 246° West 228 422 1,097 457 Climbing FlightAware ADS-B
Thu 07:20:55 -37.7610 144.8190 254° West 236 438 1,128 549 Climbing FlightAware ADS-B
Thu 07:21:00 -37.7623 144.8120 264° West 244 452 1,189 610 Climbing FlightAware ADS-B
Thu 07:21:01 -37.7620 144.8090 266° West 246 455 1,189 522 Level FlightAware ADS-B
Thu 07:21:07 -37.7620 144.8000 275° West 254 470 1,250 549 Climbing FlightAware ADS-B
Thu 07:21:11 -37.7617 144.7966 277° West 257 476 1,280 762 Climbing FlightAware ADS-B
Thu 07:21:19 -37.7590 144.7820 285° West 263 488 1,402 1,006 Climbing FlightAware ADS-B
Thu 07:21:31 -37.7550 144.7650 294° West 261 483 1,615 1,016 Climbing FlightAware ADS-B
Thu 07:21:37 -37.7510 144.7580 303° West 263 488 1,707 914 Climbing FlightAware ADS-B
Thu 07:21:41 -37.7485 144.7531 307° West 264 489 1,768 914 Climbing FlightAware ADS-B
Thu 07:21:43 -37.7460 144.7500 310° West 266 492 1,798 686 Climbing FlightAware ADS-B
Thu 07:21:49 -37.7420 144.7450 319° Northwest 267 494 1,859 914 Climbing FlightAware ADS-B
Thu 07:21:51 -37.7398 144.7421 321° Northwest 267 494 1,920 1,219 Climbing FlightAware ADS-B
Thu 07:21:55 -37.7350 144.7380 328° Northwest 271 502 1,981 1,097 Climbing FlightAware ADS-B
Thu 07:22:01 -37.7280 144.7340 338° Northwest 273 505 2,103 1,045 Climbing FlightAware ADS-B
Thu 07:22:02 -37.7286 144.7339 338° Northwest 272 504 2,103 610 Level FlightAware ADS-B
Thu 07:22:07 -37.7220 144.7310 346° North 276 512 2,164 914 Climbing FlightAware ADS-B
Thu 07:22:08 -37.7203 144.7307 347° North 275 509 2,195 1,219 Climbing FlightAware ADS-B
Thu 07:22:13 -37.7130 144.7290 356° North 276 512 2,286 914 Climbing FlightAware ADS-B
Thu 07:22:20 -37.7050 144.7300 North 281 520 2,377 813 Climbing FlightAware ADS-B
Thu 07:22:22 -37.7030 144.7300 10° North 283 525 2,408 914 Climbing FlightAware ADS-B
Thu 07:22:26 -37.6970 144.7320 14° North 288 533 2,469 914 Climbing FlightAware ADS-B
Thu 07:22:28 -37.6937 144.7329 17° North 289 536 2,499 1,097 Climbing FlightAware ADS-B
Thu 07:22:31 -37.6900 144.7350 19° North 290 538 2,560 914 Climbing FlightAware ADS-B
Thu 07:22:48 -37.6716 144.7434 23° Northeast 294 544 2,804 914 Climbing FlightAware ADS-B
Thu 07:22:49 -37.6680 144.7450 22° Northeast 294 544 2,835 732 Climbing FlightAware ADS-B
Thu 07:23:18 -37.6305 144.7649 22° Northeast 307 568 3,170 572 Climbing FlightAware ADS-B
Thu 07:23:37 -37.6030 144.7780 21° North 335 621 3,292 356 Climbing FlightAware ADS-B
Thu 07:23:54 -37.5801 144.7904 25° Northeast 356 660 3,383 457 Climbing FlightAware ADS-B
Thu 07:24:01 -37.5680 144.7980 28° Northeast 361 668 3,475 792 Climbing FlightAware ADS-B
Thu 07:24:24 -37.5353 144.8251 36° Northeast 371 687 3,780 813 Climbing FlightAware ADS-B
Thu 07:24:37 -37.5170 144.8420 36° Northeast 376 697 3,962 826 Climbing FlightAware ADS-B
Thu 07:24:55 -37.4918 144.8652 36° Northeast 381 705 4,206 834 Climbing FlightAware ADS-B
Thu 07:25:34 -37.4352 144.9177 36° Northeast 393 727 4,755 876 Climbing FlightAware ADS-B
Thu 07:25:43 -37.4230 144.9290 36° Northeast 396 734 4,907 891 Climbing FlightAware ADS-B
Thu 07:26:13 -37.3780 144.9700 36° Northeast 402 745 5,334 839 Climbing FlightAware ADS-B
Thu 07:26:44 -37.3315 145.0134 36° Northeast 406 752 5,761 844 Climbing FlightAware ADS-B
Thu 07:27:18 -37.2790 145.0614 36° Northeast 413 764 6,248 771 Climbing FlightAware ADS-B
Thu 07:27:48 -37.2323 145.1042 36° Northeast 421 779 6,584 692 Climbing FlightAware ADS-B
Thu 07:27:55 -37.2210 145.1150 36° Northeast 424 785 6,675 643 Climbing FlightAware ADS-B
Thu 07:28:25 -37.1763 145.1555 36° Northeast 431 798 6,980 610 Climbing FlightAware ADS-B
Thu 07:28:55 -37.1246 145.2027 36° Northeast 439 813 7,285 610 Climbing FlightAware ADS-B
Thu 07:29:01 -37.1140 145.2120 36° Northeast 440 814 7,346 610 Climbing FlightAware ADS-B
Thu 07:29:25 -37.0761 145.2472 38° Northeast 444 822 7,590 629 Climbing FlightAware ADS-B
Thu 07:29:33 -37.0620 145.2615 38° Northeast 445 824 7,681 610 Climbing FlightAware ADS-B
Thu 07:29:37 -37.0560 145.2680 39° Northeast 448 830 7,711 572 Climbing FlightAware ADS-B
Thu 07:30:05 -37.0109 145.3143 40° Northeast 452 837 7,986 610 Climbing FlightAware ADS-B
Thu 07:30:07 -37.0080 145.3180 39° Northeast 453 838 8,016 549 Climbing FlightAware ADS-B
Thu 07:30:35 -36.9627 145.3641 40° Northeast 457 847 8,260 508 Climbing FlightAware ADS-B
Thu 07:30:43 -36.9490 145.3780 39° Northeast 459 850 8,321 484 Climbing FlightAware ADS-B
Thu 07:31:09 -36.9065 145.4220 40° Northeast 464 859 8,534 457 Climbing FlightAware ADS-B
Thu 07:31:19 -36.8910 145.4380 39° Northeast 467 864 8,595 427 Climbing FlightAware ADS-B
Thu 07:31:39 -36.8565 145.4734 40° Northeast 470 871 8,748 488 Climbing FlightAware ADS-B
Thu 07:31:49 -36.8390 145.4910 39° Northeast 472 874 8,839 427 Climbing FlightAware ADS-B
Thu 07:32:09 -36.8085 145.5230 40° Northeast 475 880 8,961 354 Climbing FlightAware ADS-B
Thu 07:32:20 -36.7900 145.5420 39° Northeast 477 884 9,022 470 Climbing FlightAware ADS-B
Thu 07:32:44 -36.7494 145.5839 40° Northeast 477 884 9,235 575 Climbing FlightAware ADS-B
Thu 07:32:55 -36.7280 145.6060 39° Northeast 475 880 9,357 646 Climbing FlightAware ADS-B
Thu 07:33:18 -36.6892 145.6456 40° Northeast 469 869 9,601 587 Climbing FlightAware ADS-B
Thu 07:33:48 -36.6401 145.6958 39° Northeast 466 863 9,876 578 Climbing FlightAware ADS-B
Thu 07:33:56 -36.6270 145.7090 39° Northeast 466 863 9,967 610 Climbing FlightAware ADS-B
Thu 07:34:18 -36.5928 145.7440 39° Northeast 462 856 10,180 504 Climbing FlightAware ADS-B
Thu 07:34:25 -36.5790 145.7580 39° Northeast 462 856 10,211 488 Climbing FlightAware ADS-B
Thu 07:34:48 -36.5439 145.7937 39° Northeast 458 848 10,424 568 Climbing FlightAware ADS-B
Thu 07:34:54 -36.5300 145.8080 39° Northeast 459 850 10,485 484 Climbing FlightAware ADS-B
Thu 07:35:22 -36.4843 145.8541 39° Northeast 456 845 10,698 434 Climbing FlightAware ADS-B
Thu 07:35:53 -36.4342 145.9048 39° Northeast 453 838 10,912 411 Climbing FlightAware ADS-B
Thu 07:36:02 -36.4200 145.9190 39° Northeast 454 840 10,973 366 Climbing FlightAware ADS-B
Thu 07:36:23 -36.3873 145.9523 39° Northeast 453 838 11,095 316 Climbing FlightAware ADS-B
Thu 07:36:54 -36.3349 146.0058 40° Northeast 456 845 11,247 270 Climbing FlightAware ADS-B
Thu 07:37:24 -36.2858 146.0557 39° Northeast 459 850 11,369 244 Climbing FlightAware ADS-B
Thu 07:37:39 -36.2630 146.0790 39° Northeast 461 855 11,430 244 Climbing FlightAware ADS-B
Thu 07:37:54 -36.2391 146.1028 39° Northeast 461 855 11,491 233 Climbing FlightAware ADS-B
Thu 07:38:34 -36.1716 146.1704 39° Northeast 463 858 11,643 261 Climbing FlightAware ADS-B
Thu 07:39:04 -36.1215 146.2207 39° Northeast 462 856 11,796 244 Climbing FlightAware ADS-B
Thu 07:39:34 -36.0717 146.2704 39° Northeast 462 856 11,887 86 Climbing FlightAware ADS-B
Thu 07:40:08 -36.0153 146.3268 39° Northeast 464 859 11,887  Level FlightAware ADS-B
Thu 07:40:38 -35.9660 146.3760 39° Northeast 464 859 11,887  Level FlightAware ADS-B
Thu 07:41:08 -35.9148 146.4269 39° Northeast 464 859 11,887  Level FlightAware ADS-B
Thu 07:41:39 -35.8637 146.4775 39° Northeast 463 858 11,887  Level FlightAware ADS-B
Thu 07:42:09 -35.8114 146.5292 39° Northeast 463 858 11,887  Level FlightAware ADS-B
Thu 07:42:44 -35.7541 146.5862 39° Northeast 463 858 11,887  Level FlightAware ADS-B
Thu 07:43:14 -35.7134 146.6264 39° Northeast 462 856 11,887  Level FlightAware ADS-B
Thu 07:44:00 -35.6287 146.7103 39° Northeast 462 856 11,887  Level FlightAware ADS-B
Thu 07:44:37 -35.5658 146.7722 39° Northeast 461 855 11,887  Level FlightAware ADS-B
Thu 07:45:14 -35.5055 146.8315 39° Northeast 460 851 11,887  Level FlightAware ADS-B
Thu 07:45:46 -35.4504 146.8855 39° Northeast 460 851 11,887 52 Level FlightAware ADS-B
Thu 07:46:24 -35.3880 146.9462 39° Northeast 458 848 11,948  Climbing Aus ATC (RADAR)
Thu 07:46:27 -35.3952 146.9396 39° Northeast 460 851 11,887  Descending FlightAware ADS-B
Thu 07:46:44 -35.3549 146.9781 38° Northeast 456 845 11,948 87 Climbing Aus ATC (RADAR)
Thu 07:47:09 -35.3131 147.0182 39° Northeast 458 848 11,948 -126 Level Aus ATC (RADAR)
Thu 07:47:13 -35.3026 147.0298 39° Northeast 453 838 11,887  Descending FlightAware ADS-B
Thu 07:47:43 -35.2553 147.0750 39° Northeast 457 847 11,948 52 Climbing Aus ATC (RADAR)
Thu 07:48:23 -35.1885 147.1392 38° Northeast 458 848 11,948 -26 Level Aus ATC (RADAR)
Thu 07:48:53 -35.1385 147.1888 39° Northeast 458 848 11,918 -54 Descending Aus ATC (RADAR)
Thu 07:49:31 -35.1156 147.2119 39° Northeast 460 851 11,887 24 Descending FlightAware ADS-B
Thu 07:50:09 -35.0143 147.3097 39° Northeast 457 847 11,948  Climbing Aus ATC (RADAR)
Thu 07:50:30 -34.9794 147.3439 39° Northeast 460 851 11,887  Descending FlightAware ADS-B
Thu 07:51:18 -34.8979 147.4223 39° Northeast 458 848 11,948  Climbing Aus ATC (RADAR)
Thu 07:51:39 -34.9019 147.4186 39° Northeast 461 855 11,887  Descending FlightAware ADS-B
Thu 07:52:28 -34.7804 147.5347 39° Northeast 460 851 11,948  Climbing Aus ATC (RADAR)
Thu 07:52:44 -34.7916 147.5246 38° Northeast 464 859 11,887  Descending FlightAware ADS-B
Thu 07:53:28 -34.6794 147.6317 38° Northeast 460 851 11,948  Climbing Aus ATC (RADAR)
Thu 07:53:46 -34.6940 147.6183 38° Northeast 466 863 11,887  Descending FlightAware ADS-B
Thu 07:54:38 -34.5609 147.7447 38° Northeast 463 858 11,948  Climbing Aus ATC (RADAR)
Thu 07:54:40 -34.6395 147.6703 38° Northeast 466 863 11,887 -54 Descending FlightAware ADS-B
Thu 07:55:46 -34.4465 147.8539 38° Northeast 467 864 11,887 31 Level FlightAware ADS-B
Thu 07:56:38 -34.3574 147.9378 38° Northeast 465 861 11,948  Climbing Aus ATC (RADAR)
Thu 07:56:46 -34.3543 147.9413 38° Northeast 467 864 11,887  Descending FlightAware ADS-B
Thu 07:57:38 -34.2564 148.0336 38° Northeast 460 851 11,948  Climbing Aus ATC (RADAR)
Thu 07:57:42 -34.2526 148.0375 38° Northeast 466 863 11,887  Descending FlightAware ADS-B
Thu 07:58:23 -34.1800 148.1055 38° Northeast 461 855 11,948  Climbing Aus ATC (RADAR)
Thu 07:58:46 -34.1417 148.1421 38° Northeast 465 861 11,887 -28 Descending FlightAware ADS-B
Thu 07:59:28 -34.0688 148.2106 38° Northeast 464 859 11,918  Climbing Aus ATC (RADAR)
Thu 07:59:45 -34.0425 148.2354 38° Northeast 465 861 11,887  Descending FlightAware ADS-B
Thu 08:00:33 -33.9581 148.3136 38° Northeast 465 861 11,918  Climbing Aus ATC (RADAR)
Thu 08:00:44 -33.9400 148.3310 38° Northeast 468 867 11,887 -25 Descending FlightAware ADS-B
Thu 08:01:46 -33.8346 148.4292 38° Northeast 470 871 11,887  Level FlightAware ADS-B
Thu 08:02:45 -33.7317 148.5250 38° Northeast 472 874 11,887  Level FlightAware ADS-B
Thu 08:03:17 -33.6748 148.5780 38° Northeast 472 874 11,887 27 Level FlightAware ADS-B
Thu 08:03:53 -33.6159 148.6334 38° Northeast 472 874 11,918 26 Climbing Aus ATC (RADAR)
Thu 08:04:28 -33.5559 148.6891 38° Northeast 470 871 11,918 -34 Level Aus ATC (RADAR)
Thu 08:04:46 -33.5434 148.6993 38° Northeast 473 875 11,887  Descending FlightAware ADS-B
Thu 08:05:43 -33.4254 148.8088 38° Northeast 474 877 11,918 20 Climbing Aus ATC (RADAR)
Thu 08:06:18 -33.3655 148.8642 38° Northeast 469 869 11,918  Level Aus ATC (RADAR)
Thu 08:07:08 -33.2789 148.9437 37° Northeast 471 872 11,918  Level Aus ATC (RADAR)
Thu 08:07:33 -33.2361 148.9831 38° Northeast 469 869 11,918 -34 Level Aus ATC (RADAR)
Thu 08:08:02 -33.1861 149.0279 38° Northeast 469 869 11,887  Descending FlightAware ADS-B
Thu 08:08:48 -33.1063 149.1010 38° Northeast 468 867 11,918  Climbing Aus ATC (RADAR)
Thu 08:09:01 -33.0833 149.1217 38° Northeast 469 869 11,887  Descending FlightAware ADS-B
Thu 08:09:53 -32.9940 149.2030 38° Northeast 470 871 11,918  Climbing Aus ATC (RADAR)
Thu 08:10:00 -32.9818 149.2139 37° Northeast 470 871 11,887  Descending FlightAware ADS-B
Thu 08:10:57 -32.8820 149.3040 37° Northeast 468 867 11,918  Climbing Aus ATC (RADAR)
Thu 08:11:02 -32.8743 149.3110 37° Northeast 471 872 11,887  Descending FlightAware ADS-B
Thu 08:11:42 -32.8041 149.3744 37° Northeast 469 869 11,918  Climbing Aus ATC (RADAR)
Thu 08:12:15 -32.7508 149.4227 37° Northeast 471 872 11,887  Descending FlightAware ADS-B
Thu 08:12:47 -32.6907 149.4771 37° Northeast 475 880 11,918  Climbing Aus ATC (RADAR)
Thu 08:13:16 -32.6410 149.5219 37° Northeast 471 872 11,887  Descending FlightAware ADS-B
Thu 08:14:02 -32.5616 149.5951 37° Northeast 471 872 11,918  Climbing Aus ATC (RADAR)
Thu 08:14:18 -32.5358 149.6221 41° Northeast 475 880 11,887  Descending FlightAware ADS-B
Thu 08:15:16 -32.4402 149.7218 41° Northeast 467 864 11,918  Climbing Aus ATC (RADAR)
Thu 08:15:19 -32.4363 149.7260 41° Northeast 473 875 11,887  Descending FlightAware ADS-B
Thu 08:16:12 -32.3483 149.8173 41° Northeast 472 874 11,918  Climbing Aus ATC (RADAR)
Thu 08:16:18 -32.3411 149.8243 41° Northeast 471 872 11,887  Descending FlightAware ADS-B
Thu 08:17:07 -32.2580 149.9097 41° Northeast 471 872 11,918  Climbing Aus ATC (RADAR)
Thu 08:17:19 -32.2380 149.9300 41° Northeast 469 869 11,887  Descending FlightAware ADS-B
Thu 08:18:07 -32.1603 150.0104 41° Northeast 469 869 11,918  Climbing Aus ATC (RADAR)
Thu 08:18:20 -32.1395 150.0312 41° Northeast 470 871 11,887  Descending FlightAware ADS-B
Thu 08:18:52 -32.0865 150.0857 41° Northeast 469 869 11,918 27 Climbing Aus ATC (RADAR)
Thu 08:19:27 -32.0292 150.1444 41° Northeast 470 871 11,918  Level Aus ATC (RADAR)
Thu 08:20:01 -31.9737 150.2007 41° Northeast 461 855 11,918 -43 Level Aus ATC (RADAR)
Thu 08:20:10 -31.9605 150.2140 40° Northeast 470 871 11,887 -46 Descending FlightAware ADS-B (YPLB)
Thu 08:20:41 -31.9096 150.2660 41° Northeast 469 869 11,887 30 Level FlightAware ADS-B (YPLB)
Thu 08:21:11 -31.8571 150.3194 41° Northeast 470 871 11,918  Climbing Aus ATC (RADAR)
Thu 08:21:22 -31.8410 150.3357 41° Northeast 469 869 11,887  Descending FlightAware ADS-B
Thu 08:22:01 -31.7754 150.4025 41° Northeast 468 867 11,918  Climbing Aus ATC (RADAR)
Thu 08:22:20 -31.7469 150.4310 40° Northeast 467 864 11,887 -37 Descending FlightAware ADS-B (YPLB)
Thu 08:22:50 -31.6973 150.4812 40° Northeast 467 864 11,887  Level FlightAware ADS-B (YPLB)
Thu 08:23:22 -31.6461 150.5329 40° Northeast 467 864 11,887  Level FlightAware ADS-B (YPLB)
Thu 08:24:00 -31.5829 150.5967 40° Northeast 468 867 11,887 25 Level FlightAware ADS-B (YPLB)
Thu 08:24:36 -31.5219 150.6579 40° Northeast 467 864 11,918  Climbing Aus ATC (RADAR)
Thu 08:24:50 -31.5004 150.6796 40° Northeast 467 864 11,887 -41 Descending FlightAware ADS-B (YPLB)
Thu 08:25:20 -31.4505 150.7299 40° Northeast 467 864 11,887  Level FlightAware ADS-B (YPLB)
Thu 08:25:50 -31.4073 150.7734 40° Northeast 466 863 11,887  Level FlightAware ADS-B (YPLB)
Thu 08:26:35 -31.3955 150.7852 40° Northeast 464 859 11,887 17 Level FlightAware ADS-B (YPLB)
Thu 08:27:36 -31.2276 150.9528 40° Northeast 464 859 11,918  Climbing Aus ATC (RADAR)
Thu 08:27:50 -31.2071 150.9732 40° Northeast 466 863 11,887  Descending FlightAware ADS-B (YPLB)
Thu 08:28:50 -31.1057 151.0742 40° Northeast 459 850 11,918  Climbing Aus ATC (RADAR)
Thu 08:29:16 -31.0681 151.1118 40° Northeast 468 867 11,887  Descending FlightAware ADS-B (YPLB)
Thu 08:29:56 -30.9973 151.1829 40° Northeast 471 872 11,918 26 Climbing Aus ATC (RADAR)
Thu 08:30:26 -30.9473 151.2315 40° Northeast 470 871 11,918  Level Aus ATC (RADAR)
Thu 08:31:01 -30.8892 151.2890 40° Northeast 471 872 11,918 -40 Level Aus ATC (RADAR)
Thu 08:31:12 -30.8734 151.3043 40° Northeast 473 875 11,887 -39 Descending FlightAware ADS-B (YPLB)
Thu 08:31:48 -30.8172 151.3597 40° Northeast 475 880 11,887  Level FlightAware ADS-B
Thu 08:32:22 -30.7591 151.4168 40° Northeast 475 880 11,887 22 Level FlightAware ADS-B (YPLB)
Thu 08:33:10 -30.6716 151.5025 40° Northeast 474 877 11,918  Climbing Aus ATC (RADAR)
Thu 08:33:34 -30.6326 151.5412 40° Northeast 470 871 11,887 -33 Descending FlightAware ADS-B
Thu 08:34:06 -30.5798 151.5929 40° Northeast 470 871 11,887  Level FlightAware ADS-B
Thu 08:34:44 -30.5186 151.6531 40° Northeast 470 871 11,887  Level FlightAware ADS-B
Thu 08:35:35 -30.4312 151.7383 40° Northeast 471 872 11,887  Level FlightAware ADS-B
Thu 08:36:06 -30.3799 151.7880 40° Northeast 471 872 11,887 28 Level FlightAware ADS-B
Thu 08:36:40 -30.3230 151.8423 40° Northeast 470 871 11,918  Climbing Aus ATC (RADAR)
Thu 08:36:45 -30.3681 151.7995 40° Northeast 470 871 11,887 -52 Descending FlightAware ADS-B
Thu 08:37:15 -30.2717 151.8935 40° Northeast 469 869 11,887 29 Level FlightAware ADS-B
Thu 08:37:49 -30.2082 151.9536 40° Northeast 457 847 11,918  Climbing Aus ATC (RADAR)
Thu 08:38:05 -30.1819 151.9800 40° Northeast 468 867 11,887 -33 Descending FlightAware ADS-B
Thu 08:38:45 -30.1152 152.0446 40° Northeast 467 864 11,887  Level FlightAware ADS-B
Thu 08:39:25 -30.0495 152.1085 40° Northeast 468 867 11,887 24 Level FlightAware ADS-B
Thu 08:40:00 -29.9916 152.1630 40° Northeast 469 869 11,918  Climbing Aus ATC (RADAR)
Thu 08:40:05 -29.9827 152.1728 40° Northeast 470 871 11,887 -52 Descending FlightAware ADS-B
Thu 08:40:35 -29.9329 152.2222 44° Northeast 474 877 11,887  Level FlightAware ADS-B
Thu 08:41:06 -29.8875 152.2786 48° Northeast 481 892 11,887  Level FlightAware ADS-B
Thu 08:41:36 -29.8441 152.3340 48° Northeast 482 893 11,887  Level FlightAware ADS-B
Thu 08:42:06 -29.7976 152.3929 48° Northeast 483 895 11,887  Level FlightAware ADS-B
Thu 08:42:45 -29.7383 152.4676 48° Northeast 483 895 11,887  Level FlightAware ADS-B
Thu 08:43:16 -29.6955 152.5215 48° Northeast 484 896 11,887  Level FlightAware ADS-B
Thu 08:43:56 -29.6322 152.6005 47° Northeast 485 898 11,887  Level FlightAware ADS-B
Thu 08:44:26 -29.5862 152.6578 47° Northeast 485 898 11,887  Level FlightAware ADS-B
Thu 08:44:56 -29.5411 152.7139 48° Northeast 484 896 11,887  Level FlightAware ADS-B
Thu 08:45:26 -29.4965 152.7698 48° Northeast 485 898 11,887 22 Level FlightAware ADS-B
Thu 08:46:19 -29.4141 152.8736 48° Northeast 483 895 11,918  Climbing Aus ATC (RADAR)
Thu 08:46:36 -29.3890 152.9044 47° Northeast 485 898 11,887 -39 Descending FlightAware ADS-B
Thu 08:47:06 -29.3437 152.9606 47° Northeast 485 898 11,887  Level FlightAware ADS-B
Thu 08:47:36 -29.3003 153.0147 48° Northeast 486 900 11,887  Level FlightAware ADS-B
Thu 08:48:06 -29.2551 153.0708 47° Northeast 486 900 11,887  Level FlightAware ADS-B
Thu 08:48:36 -29.2064 153.1310 47° Northeast 486 900 11,887  Level FlightAware ADS-B
Thu 08:48:56 -29.1767 153.1678 47° Northeast 486 900 11,887  Level FlightAware ADS-B
Thu 08:49:26 -29.1305 153.2248 47° Northeast 484 896 11,887  Level FlightAware ADS-B
Thu 08:49:56 -29.0852 153.2808 47° Northeast 485 898 11,887  Level FlightAware ADS-B
Thu 08:50:26 -29.0391 153.3377 47° Northeast 485 898 11,887  Level FlightAware ADS-B
Thu 08:50:46 -29.0084 153.3753 48° Northeast 479 887 11,887  Level FlightAware ADS-B (YXTO)
Thu 08:51:16 -28.9626 153.4315 47° Northeast 485 898 11,887 25 Level FlightAware ADS-B
Thu 08:51:59 -28.8976 153.5119 47° Northeast 481 892 11,918  Climbing Aus ATC (RADAR)
Thu 08:52:06 -28.8863 153.5251 47° Northeast 484 896 11,887 -49 Descending FlightAware ADS-B
Thu 08:52:36 -28.8407 153.5808 47° Northeast 484 896 11,887  Level FlightAware ADS-B
Thu 08:53:06 -28.7953 153.6360 47° Northeast 484 896 11,887  Level FlightAware ADS-B
Thu 08:53:36 -28.7509 153.6903 47° Northeast 485 898 11,887  Level FlightAware ADS-B
Thu 08:54:06 -28.7036 153.7480 47° Northeast 485 898 11,887  Level FlightAware ADS-B
Thu 08:54:36 -28.6605 153.8004 47° Northeast 486 900 11,887  Level FlightAware ADS-B
Thu 08:54:55 -28.6277 153.8404 47° Northeast 487 901 11,887  Level FlightAware ADS-B
Thu 08:55:25 -28.5834 153.8943 47° Northeast 488 904 11,887  Level FlightAware ADS-B
Thu 08:55:56 -28.5339 153.9545 47° Northeast 488 904 11,887  Level FlightAware ADS-B
Thu 08:56:26 -28.4881 154.0100 47° Northeast 490 908 11,887  Level FlightAware ADS-B
Thu 08:56:56 -28.4410 154.0670 47° Northeast 492 911 11,887  Level FlightAware ADS-B
Thu 08:57:26 -28.3960 154.1211 47° Northeast 492 911 11,887  Level FlightAware ADS-B
Thu 08:57:56 -28.3488 154.1781 47° Northeast 495 917 11,887  Level FlightAware ADS-B
Thu 08:58:26 -28.3002 154.2365 47° Northeast 496 919 11,887 30 Level FlightAware ADS-B
Thu 08:58:58 -28.2491 154.2983 47° Northeast 495 917 11,918  Climbing Aus ATC (RADAR)
Thu 08:58:59 -28.2481 154.2990 47° Northeast 499 924 11,887 -51 Descending FlightAware ADS-B
Thu 08:59:34 -28.1913 154.3672 47° Northeast 500 925 11,887  Level FlightAware ADS-B
Thu 09:00:05 -28.1422 154.4265 47° Northeast 502 930 11,887 29 Level FlightAware ADS-B
Thu 09:00:38 -28.0903 154.4893 47° Northeast 501 929 11,918  Climbing Aus ATC (RADAR)
Thu 09:00:46 -28.0796 154.5018 47° Northeast 502 930 11,887  Descending FlightAware ADS-B
Thu 09:01:43 -27.9871 154.6127 47° Northeast 498 922 11,918  Climbing Aus ATC (RADAR)
Thu 09:01:51 -27.9748 154.6269 47° Northeast 500 925 11,887 -43 Descending FlightAware ADS-B
Thu 09:02:26 -27.9217 154.6904 47° Northeast 501 929 11,887  Level FlightAware ADS-B
Thu 09:02:56 -27.8737 154.7473 47° Northeast 502 930 11,887 20 Level FlightAware ADS-B
Thu 09:03:57 -27.7737 154.8654 47° Northeast 480 888 11,918  Climbing Aus ATC (RADAR)
Thu 09:04:05 -27.7594 154.8827 46° Northeast 506 937 11,887 -37 Descending FlightAware ADS-B
Thu 09:04:46 -27.6945 154.9595 47° Northeast 510 945 11,887  Level FlightAware ADS-B
Thu 09:05:16 -27.6445 155.0184 46° Northeast 512 948 11,887  Level FlightAware ADS-B
Thu 09:05:46 -27.5950 155.0769 46° Northeast 515 954 11,887  Level FlightAware ADS-B
Thu 09:06:16 -27.5461 155.1347 47° Northeast 517 958 11,887  Level FlightAware ADS-B
Thu 09:06:46 -27.4963 155.1934 47° Northeast 519 961 11,887  Level FlightAware ADS-B
Thu 09:07:20 -27.4398 155.2598 47° Northeast 515 954 11,887  Level FlightAware ADS-B (YXTO)
Thu 09:07:34 -27.4166 155.2870 47° Northeast 516 956 11,887  Level FlightAware ADS-B (YXTO)
Thu 09:08:09 -27.3575 155.3561 47° Northeast 517 958 11,887  Level FlightAware ADS-B (YXTO)
Thu 09:08:46 -27.2981 155.4260 47° Northeast 523 969 11,887  Level FlightAware ADS-B
Thu 09:09:16 -27.2521 155.4800 46° Northeast 523 969 11,887  Level FlightAware ADS-B
Thu 09:09:55 -27.1827 155.5609 46° Northeast 524 970 11,887  Level FlightAware ADS-B
Thu 09:10:26 -27.1280 155.6246 46° Northeast 525 972 11,887  Level FlightAware ADS-B
Thu 09:11:05 -27.0649 155.6979 46° Northeast 526 974 11,887  Level FlightAware ADS-B
Thu 09:11:45 -26.9938 155.7804 46° Northeast 525 972 11,887  Level FlightAware ADS-B
Thu 09:12:15 -26.9430 155.8393 46° Northeast 525 972 11,887  Level FlightAware ADS-B
Thu 09:12:46 -26.8916 155.8989 46° Northeast 525 972 11,887  Level FlightAware ADS-B
Thu 09:13:26 -26.8276 155.9729 46° Northeast 523 969 11,887  Level FlightAware ADS-B
Thu 09:13:56 -26.7746 156.0340 46° Northeast 523 969 11,887 30 Level FlightAware ADS-B
Thu 09:14:27 -26.7210 156.0944 46° Northeast 518 959 11,918  Climbing Aus ATC (RADAR)
Thu 09:15:05 -26.6727 156.1514 46° Northeast 521 966 11,887  Descending FlightAware ADS-B
Thu 09:16:36 -26.5029 156.3447 46° Northeast 516 956 11,918  Climbing Aus ATC (RADAR)
Thu 09:16:55 -26.4729 156.3805 46° Northeast 521 966 11,887 -37 Descending FlightAware ADS-B
Thu 09:17:25 -26.4223 156.4385 46° Northeast 520 962 11,887 17 Level FlightAware ADS-B
Thu 09:18:41 -26.2930 156.5836 46° Northeast 513 950 11,918  Climbing Aus ATC (RADAR)
Thu 09:18:45 -26.2885 156.5910 46° Northeast 519 961 11,887  Descending FlightAware ADS-B
Thu 09:19:41 -26.1935 156.6985 46° Northeast 511 946 11,918  Climbing Aus ATC (RADAR)
Thu 09:20:15 -26.1373 156.7628 46° Northeast 518 959 11,887 -26 Descending FlightAware ADS-B
Thu 09:20:51 -26.0758 156.8309 46° Northeast 512 948 11,887  Level Aus ATC (RADAR)
Thu 09:20:55 -26.0695 156.8398 46° Northeast 517 958 11,887  Level FlightAware ADS-B
Thu 09:21:26 -26.0188 156.8971 46° Northeast 516 956 11,887  Level FlightAware ADS-B
Thu 09:22:06 -25.9517 156.9728 46° Northeast 516 956 11,887  Level FlightAware ADS-B
Thu 09:22:56 -25.8685 157.0679 46° Northeast 508 941 11,887  Level Aus ATC (RADAR)
Thu 09:24:06 -25.7501 157.1987 45° Northeast 510 945 11,887  Level Aus ATC (RADAR)
Thu 09:25:06 -25.6500 157.3119 46° Northeast 510 945 11,887  Level Aus ATC (RADAR)
Thu 09:26:11 -25.5406 157.4347 45° Northeast 508 941 11,887  Level Aus ATC (RADAR)
Thu 09:27:16 -25.4326 157.5564 46° Northeast 506 937 11,887  Level Aus ATC (RADAR)
Thu 09:27:46 -25.3827 157.6114 45° Northeast 506 937 11,887  Level Aus ATC (RADAR)
Thu 09:32:06 -24.9483 158.0918 45° Northeast 11,887  Level Aus ATC (Calculated)
Thu 09:33:12 -24.8258 158.2263 55° Northeast 11,887  Level Aus ATC (Calculated)
Thu 09:35:00 -24.6913 158.4358 55° Northeast  Level Estimated
Thu 09:36:00 -24.6165 158.5519 55° Northeast  Level Estimated
Thu 09:37:00 -24.5416 158.6679 55° Northeast  Level Estimated
Thu 09:38:00 -24.4665 158.7838 55° Northeast  Level Estimated
Thu 09:39:00 -24.3914 158.8996 55° Northeast  Level Estimated
Thu 09:40:00 -24.3162 159.0152 54° Northeast  Level Estimated
Thu 09:41:00 -24.2409 159.1306 54° Northeast  Level Estimated
Thu 09:42:00 -24.1656 159.2460 54° Northeast  Level Estimated
Thu 09:43:00 -24.0901 159.3612 54° Northeast  Level Estimated
Thu 09:44:00 -24.0146 159.4762 54° Northeast  Level Estimated
Thu 09:45:00 -23.8184 159.6691 211° Southwest 11,887  Level Aus ATC (Calculated)
Thu 09:45:00 -23.9390 159.5912 54° Northeast  Level Estimated
Thu 09:46:00 -23.7432 159.7842 54° Northeast  Level Estimated
Thu 09:47:00 -23.6679 159.8992 54° Northeast  Level Estimated
Thu 09:47:32 -23.5929 159.9864 89° East 11,887  Level Aus ATC (Calculated)
Thu 09:48:00 -23.5926 160.0140 54° Northeast  Level Estimated
Thu 09:49:00 -23.4829 160.1540 54° Northeast  Level Estimated
Thu 09:50:00 -23.4079 160.2682 54° Northeast  Level Estimated
Thu 09:51:00 -23.3327 160.3822 54° Northeast  Level Estimated
Thu 09:52:00 -23.2575 160.4960 54° Northeast  Level Estimated
Thu 09:53:00 -23.1822 160.6098 54° Northeast  Level Estimated
Thu 09:54:00 -23.1068 160.7234 54° Northeast  Level Estimated
Thu 09:55:00 -23.0313 160.8369 54° Northeast  Level Estimated
Thu 09:56:00 -22.9558 160.9503 54° Northeast  Level Estimated
Thu 09:56:11 -22.8388 161.0331 146° Southeast 11,887  Level Aus ATC (Calculated)
Thu 09:57:00 -22.8801 161.0635 54° Northeast  Level Estimated
Thu 09:58:00 -22.7024 161.2394 54° Northeast  Level Estimated
Thu 09:59:00 -22.6218 161.3483 51° Northeast  Level FlightAware Approximate
Thu 09:59:00 -22.6125 161.3431 52° Northeast 11,887  Level Aus ATC (Calculated)
Thu 10:00:00 -22.5324 161.4524 52° Northeast  Level FlightAware Approximate
Thu 10:01:00 -22.4523 161.5616 52° Northeast  Level FlightAware Approximate
Thu 10:02:00 -22.3720 161.6706 51° Northeast  Level FlightAware Approximate
Thu 10:03:00 -22.2917 161.7795 51° Northeast  Level FlightAware Approximate
Thu 10:04:00 -22.2114 161.8883 51° Northeast  Level FlightAware Approximate
Thu 10:05:00 -22.1309 161.9970 51° Northeast  Level FlightAware Approximate
Thu 10:06:00 -22.0504 162.1055 51° Northeast  Level FlightAware Approximate
Thu 10:07:00 -21.9698 162.2139 51° Northeast  Level FlightAware Approximate
Thu 10:08:00 -21.8891 162.3222 51° Northeast  Level FlightAware Approximate
Thu 10:09:00 -21.8084 162.4304 51° Northeast  Level FlightAware Approximate
Thu 10:09:00 -21.7287 162.5369 51° Northeast 11,887  Level Aus ATC (Calculated)
Thu 10:10:00 -21.7276 162.5384 51° Northeast  Level FlightAware Approximate
Thu 10:11:00 -21.5669 162.7526 51° Northeast  Level FlightAware Approximate
Thu 10:11:00 -21.5548 162.7687 51° Northeast 11,887  Level Aus ATC (Calculated)
Thu 10:12:00 -21.4737 162.8764 51° Northeast  Level FlightAware Approximate
Thu 10:13:00 -21.3926 162.9839 51° Northeast  Level FlightAware Approximate
Thu 10:14:00 -21.3246 163.0823 54° Northeast  Level FlightAware Approximate
Thu 10:14:00 -21.3236 163.0838 54° Northeast 488  Level Aus ATC (Calculated)
Thu 10:15:00 -21.2477 163.1956 54° Northeast  Level FlightAware Approximate
Thu 10:16:00 -21.1717 163.3071 54° Northeast  Level FlightAware Approximate
Thu 10:17:00 -21.0956 163.4186 54° Northeast  Level FlightAware Approximate
Thu 10:17:05 -21.0957 163.4185 54° Northeast 488  Level Aus ATC (Calculated)
Thu 10:19:00 -20.9497 163.6319 54° Northeast  Level FlightAware Approximate
Thu 10:20:00 -20.8734 163.7430 54° Northeast  Level FlightAware Approximate
Thu 10:21:00 -20.7971 163.8541 54° Northeast  Level FlightAware Approximate
Thu 10:22:00 -20.7207 163.9650 54° Northeast  Level FlightAware Approximate
Thu 10:23:00 -20.6442 164.0758 54° Northeast  Level FlightAware Approximate
Thu 10:24:00 -20.5676 164.1865 54° Northeast  Level FlightAware Approximate
Thu 10:25:00 -20.4910 164.2971 54° Northeast  Level FlightAware Approximate
Thu 10:26:00 -20.4143 164.4076 53° Northeast  Level FlightAware Approximate
Thu 10:27:00 -20.3375 164.5179 53° Northeast  Level FlightAware Approximate
Thu 10:28:00 -20.2607 164.6282 53° Northeast  Level FlightAware Approximate
Thu 10:29:00 -20.1838 164.7384 53° Northeast  Level FlightAware Approximate
Thu 10:30:00 -20.1068 164.8484 53° Northeast  Level FlightAware Approximate
Thu 10:31:00 -20.0298 164.9583 53° Northeast  Level FlightAware Approximate
Thu 10:32:00 -19.9527 165.0682 53° Northeast  Level FlightAware Approximate
Thu 10:32:35 -19.8885 165.1593 53° Northeast 488  Level Aus ATC (Calculated)
Thu 10:34:00 -19.7791 165.3146 53° Northeast  Level FlightAware Approximate
Thu 10:35:00 -19.7018 165.4241 53° Northeast  Level FlightAware Approximate
Thu 10:36:00 -19.6244 165.5335 53° Northeast  Level FlightAware Approximate
Thu 10:37:00 -19.5469 165.6427 53° Northeast  Level FlightAware Approximate
Thu 10:38:00 -19.4694 165.7519 53° Northeast  Level FlightAware Approximate
Thu 10:39:00 -19.3918 165.8609 53° Northeast  Level FlightAware Approximate
Thu 10:40:00 -19.3141 165.9699 53° Northeast  Level FlightAware Approximate
Thu 10:41:00 -19.2364 166.0788 53° Northeast  Level FlightAware Approximate
Thu 10:42:00 -19.1586 166.1875 53° Northeast  Level FlightAware Approximate
Thu 10:43:00 -19.0808 166.2961 53° Northeast  Level FlightAware Approximate
Thu 10:44:00 -19.0029 166.4047 53° Northeast  Level FlightAware Approximate
Thu 10:45:00 -18.9249 166.5131 53° Northeast  Level FlightAware Approximate
Thu 10:46:00 -18.8468 166.6215 53° Northeast  Level FlightAware Approximate
Thu 10:47:00 -18.7687 166.7297 53° Northeast  Level FlightAware Approximate
Thu 10:48:00 -18.6906 166.8378 53° Northeast  Level FlightAware Approximate
Thu 10:49:00 -18.6124 166.9459 53° Northeast  Level FlightAware Approximate
Thu 10:50:00 -18.5341 167.0538 53° Northeast  Level FlightAware Approximate
Thu 10:51:00 -18.4557 167.1617 53° Northeast  Level FlightAware Approximate
Thu 10:52:00 -18.3773 167.2694 53° Northeast  Level FlightAware Approximate
Thu 10:53:00 -18.2988 167.3771 52° Northeast  Level FlightAware Approximate
Thu 10:54:00 -18.2203 167.4846 52° Northeast  Level FlightAware Approximate
Thu 10:55:00 -18.1417 167.5921 52° Northeast  Level FlightAware Approximate
Thu 10:56:00 -18.0631 167.6994 52° Northeast  Level FlightAware Approximate
Thu 10:57:00 -17.9844 167.8067 52° Northeast  Level FlightAware Approximate
Thu 10:58:00 -17.9056 167.9138 52° Northeast  Level FlightAware Approximate
Thu 10:59:00 -17.8267 168.0209 52° Northeast  Level FlightAware Approximate
Thu 11:00:00 -17.7479 168.1279 52° Northeast  Level FlightAware Approximate
Thu 11:01:00 -17.6689 168.2348 52° Northeast  Level FlightAware Approximate
Thu 11:02:00 -17.6621 168.2439 54° Northeast  Level FlightAware Approximate
Thu 11:03:00 -17.6993 168.3198 117° Southeast  Level Estimated
Thu 11:04:00 -17.6993 168.3198 North  Level Estimated
Thu 11:05:00 -17.6993 168.3198 North  Level Estimated
Thu 11:06:00 -17.6993 168.3198 North  Level Estimated
Thu 11:07:00 -17.6993 168.3198 North  Level Estimated
Thu 11:08:00 -17.6993 168.3198 North  Level Estimated
Thu 11:09:00 -17.6993 168.3198 North  Level Estimated
Thu 11:10:00 -17.6993 168.3198 North  Level Estimated
Thu 11:11:00 -17.6993 168.3198 North  Level Estimated
Thu 11:12:00 -17.6993 168.3198 North  Level Estimated
Thu 11:13:00 -17.6993 168.3198 North  Level Estimated
Thu 11:14:00 -17.6993 168.3198 North  Level Estimated
Thu 11:15:00 -17.6993 168.3198 North  Level Estimated
Thu 11:16:00 -17.6993 168.3198 North  Level Estimated
Thu 11:17:00 -17.6993 168.3198 North  Level Estimated
Thu 11:18:00 -17.6993 168.3198 North  Level Estimated
Thu 11:19:00 -17.6993 168.3198 North  Level Estimated
Thu 11:20:00 -17.6993 168.3198 North  Level Estimated

Login

Don't have an account? Register now (free) for customized features, flight alerts, and more!